sensor_id;sensor_type;location;lat;lon;timestamp;pressure;altitude;pressure_sealevel;temperature;humidity
24762;BME280;12865;51.934;10.330;2023-02-12T00:02:12;101070.75;;;7.09;100.00
24762;BME280;12865;51.934;10.330;2023-02-12T00:04:58;101071.06;;;7.03;100.00
24762;BME280;12865;51.934;10.330;2023-02-12T00:07:43;101076.41;;;7.02;100.00
24762;BME280;12865;51.934;10.330;2023-02-12T00:10:29;101064.81;;;7.04;100.00
24762;BME280;12865;51.934;10.330;2023-02-12T00:13:15;101070.19;;;7.03;100.00
24762;BME280;12865;51.934;10.330;2023-02-12T00:16:08;101064.94;;;7.01;100.00
24762;BME280;12865;51.934;10.330;2023-02-12T00:18:56;101072.13;;;6.99;100.00
24762;BME280;12865;51.934;10.330;2023-02-12T00:21:42;101070.47;;;6.97;100.00
24762;BME280;12865;51.934;10.330;2023-02-12T00:24:28;101072.22;;;6.98;100.00
24762;BME280;12865;51.934;10.330;2023-02-12T00:27:13;101079.94;;;7.02;100.00
24762;BME280;12865;51.934;10.330;2023-02-12T00:29:59;101076.53;;;7.00;100.00
24762;BME280;12865;51.934;10.330;2023-02-12T00:32:45;101075.66;;;7.00;100.00
24762;BME280;12865;51.934;10.330;2023-02-12T00:35:31;101075.50;;;7.03;100.00
24762;BME280;12865;51.934;10.330;2023-02-12T00:38:16;101077.34;;;7.01;100.00
24762;BME280;12865;51.934;10.330;2023-02-12T00:41:03;101082.75;;;6.99;100.00
24762;BME280;12865;51.934;10.330;2023-02-12T00:43:49;101080.09;;;6.99;100.00
24762;BME280;12865;51.934;10.330;2023-02-12T00:46:35;101075.78;;;6.97;100.00
24762;BME280;12865;51.934;10.330;2023-02-12T00:49:21;101080.97;;;7.00;100.00
24762;BME280;12865;51.934;10.330;2023-02-12T00:52:07;101079.34;;;6.96;100.00
24762;BME280;12865;51.934;10.330;2023-02-12T00:54:53;101083.88;;;6.94;100.00
24762;BME280;12865;51.934;10.330;2023-02-12T00:57:38;101084.81;;;6.93;100.00
24762;BME280;12865;51.934;10.330;2023-02-12T01:00:24;101083.03;;;6.93;100.00
24762;BME280;12865;51.934;10.330;2023-02-12T01:03:10;101088.34;;;6.93;100.00
24762;BME280;12865;51.934;10.330;2023-02-12T01:05:56;101083.97;;;6.92;100.00
24762;BME280;12865;51.934;10.330;2023-02-12T01:08:41;101081.16;;;6.95;100.00
24762;BME280;12865;51.934;10.330;2023-02-12T01:11:27;101087.38;;;6.94;100.00
24762;BME280;12865;51.934;10.330;2023-02-12T01:14:13;101081.09;;;6.97;100.00
24762;BME280;12865;51.934;10.330;2023-02-12T01:16:58;101087.53;;;6.91;100.00
24762;BME280;12865;51.934;10.330;2023-02-12T01:19:44;101090.91;;;6.95;100.00
24762;BME280;12865;51.934;10.330;2023-02-12T01:22:30;101092.44;;;7.00;100.00
24762;BME280;12865;51.934;10.330;2023-02-12T01:25:16;101092.69;;;6.94;100.00
24762;BME280;12865;51.934;10.330;2023-02-12T01:28:02;101092.84;;;6.91;100.00
24762;BME280;12865;51.934;10.330;2023-02-12T01:30:48;101092.03;;;6.89;100.00
24762;BME280;12865;51.934;10.330;2023-02-12T01:33:34;101092.03;;;6.89;100.00
24762;BME280;12865;51.934;10.330;2023-02-12T01:36:20;101089.34;;;6.91;100.00
24762;BME280;12865;51.934;10.330;2023-02-12T01:39:06;101080.56;;;6.89;100.00
24762;BME280;12865;51.934;10.330;2023-02-12T01:41:51;101084.16;;;6.88;100.00
24762;BME280;12865;51.934;10.330;2023-02-12T01:44:42;101081.38;;;6.91;100.00
24762;BME280;12865;51.934;10.330;2023-02-12T01:47:28;101090.13;;;6.93;100.00
24762;BME280;12865;51.934;10.330;2023-02-12T01:50:16;101085.75;;;6.92;100.00
24762;BME280;12865;51.934;10.330;2023-02-12T01:53:04;101086.69;;;6.91;100.00
24762;BME280;12865;51.934;10.330;2023-02-12T01:55:52;101089.16;;;6.94;100.00
24762;BME280;12865;51.934;10.330;2023-02-12T01:58:41;101099.00;;;6.92;100.00
24762;BME280;12865;51.934;10.330;2023-02-12T02:01:30;101099.06;;;6.90;100.00
24762;BME280;12865;51.934;10.330;2023-02-12T02:04:20;101107.94;;;6.89;100.00
24762;BME280;12865;51.934;10.330;2023-02-12T02:07:09;101103.28;;;6.94;100.00
24762;BME280;12865;51.934;10.330;2023-02-12T02:09:56;101105.00;;;6.95;100.00
24762;BME280;12865;51.934;10.330;2023-02-12T02:12:42;101103.28;;;6.94;100.00
24762;BME280;12865;51.934;10.330;2023-02-12T02:15:49;101098.16;;;6.91;100.00
24762;BME280;12865;51.934;10.330;2023-02-12T02:22:01;101100.72;;;6.93;100.00
24762;BME280;12865;51.934;10.330;2023-02-12T02:31:25;101087.66;;;6.88;100.00
24762;BME280;12865;51.934;10.330;2023-02-12T02:37:22;101085.00;;;6.88;100.00
24762;BME280;12865;51.934;10.330;2023-02-12T02:40:19;101077.16;;;6.87;100.00
24762;BME280;12865;51.934;10.330;2023-02-12T02:43:17;101087.53;;;6.91;100.00
24762;BME280;12865;51.934;10.330;2023-02-12T02:46:09;101081.50;;;6.88;100.00
24762;BME280;12865;51.934;10.330;2023-02-12T02:48:59;101079.81;;;6.87;100.00
24762;BME280;12865;51.934;10.330;2023-02-12T02:51:50;101082.38;;;6.88;100.00
24762;BME280;12865;51.934;10.330;2023-02-12T02:54:59;101089.56;;;6.86;100.00
24762;BME280;12865;51.934;10.330;2023-02-12T02:57:35;101092.28;;;6.85;100.00
24762;BME280;12865;51.934;10.330;2023-02-12T03:01:00;101077.28;;;6.84;100.00
24762;BME280;12865;51.934;10.330;2023-02-12T03:04:04;101095.78;;;6.85;100.00
24762;BME280;12865;51.934;10.330;2023-02-12T03:06:56;101079.06;;;6.83;100.00
24762;BME280;12865;51.934;10.330;2023-02-12T03:09:55;101094.00;;;6.86;100.00
24762;BME280;12865;51.934;10.330;2023-02-12T03:15:59;101100.22;;;6.85;100.00
24762;BME280;12865;51.934;10.330;2023-02-12T03:18:57;101100.28;;;6.83;100.00
24762;BME280;12865;51.934;10.330;2023-02-12T03:21:54;101094.19;;;6.81;100.00
24762;BME280;12865;51.934;10.330;2023-02-12T03:24:55;101100.22;;;6.85;100.00
24762;BME280;12865;51.934;10.330;2023-02-12T03:34:22;101104.72;;;6.83;100.00
24762;BME280;12865;51.934;10.330;2023-02-12T03:37:16;101100.41;;;6.80;100.00
24762;BME280;12865;51.934;10.330;2023-02-12T03:40:26;101111.88;;;6.81;100.00
24762;BME280;12865;51.934;10.330;2023-02-12T03:43:23;101111.00;;;6.80;100.00
24762;BME280;12865;51.934;10.330;2023-02-12T03:46:26;101104.88;;;6.80;100.00
24762;BME280;12865;51.934;10.330;2023-02-12T03:52:03;101112.84;;;6.80;100.00
24762;BME280;12865;51.934;10.330;2023-02-12T03:54:50;101117.19;;;6.81;100.00
24762;BME280;12865;51.934;10.330;2023-02-12T03:57:42;101117.34;;;6.78;100.00
24762;BME280;12865;51.934;10.330;2023-02-12T04:00:29;101118.03;;;6.81;100.00
24762;BME280;12865;51.934;10.330;2023-02-12T04:03:15;101116.31;;;6.80;100.00
24762;BME280;12865;51.934;10.330;2023-02-12T04:06:01;101127.78;;;6.81;100.00
24762;BME280;12865;51.934;10.330;2023-02-12T04:08:46;101123.34;;;6.81;100.00
24762;BME280;12865;51.934;10.330;2023-02-12T04:14:33;101125.34;;;6.76;100.00
24762;BME280;12865;51.934;10.330;2023-02-12T04:17:34;101127.06;;;6.77;100.00
24762;BME280;12865;51.934;10.330;2023-02-12T04:20:35;101135.81;;;6.79;100.00
24762;BME280;12865;51.934;10.330;2023-02-12T04:24:30;101131.50;;;6.77;100.00
24762;BME280;12865;51.934;10.330;2023-02-12T04:27:01;101141.13;;;6.79;100.00
24762;BME280;12865;51.934;10.330;2023-02-12T04:30:05;101148.28;;;6.77;100.00
24762;BME280;12865;51.934;10.330;2023-02-12T04:32:56;101150.59;;;6.85;100.00
24762;BME280;12865;51.934;10.330;2023-02-12T04:35:48;101152.50;;;6.81;100.00
24762;BME280;12865;51.934;10.330;2023-02-12T04:38:39;101148.06;;;6.82;100.00
24762;BME280;12865;51.934;10.330;2023-02-12T04:41:26;101155.25;;;6.80;100.00
24762;BME280;12865;51.934;10.330;2023-02-12T04:44:24;101166.50;;;6.85;100.00
24762;BME280;12865;51.934;10.330;2023-02-12T04:47:15;101159.53;;;6.82;100.00
24762;BME280;12865;51.934;10.330;2023-02-12T04:50:00;101168.34;;;6.83;100.00
24762;BME280;12865;51.934;10.330;2023-02-12T04:52:46;101174.31;;;6.88;100.00
24762;BME280;12865;51.934;10.330;2023-02-12T04:55:32;101176.25;;;6.84;100.00
24762;BME280;12865;51.934;10.330;2023-02-12T04:58:18;101171.88;;;6.83;100.00
24762;BME280;12865;51.934;10.330;2023-02-12T05:01:04;101172.50;;;6.88;100.00
24762;BME280;12865;51.934;10.330;2023-02-12T05:03:52;101168.13;;;6.87;100.00
24762;BME280;12865;51.934;10.330;2023-02-12T05:06:39;101171.00;;;6.83;100.00
24762;BME280;12865;51.934;10.330;2023-02-12T05:09:25;101183.59;;;6.78;100.00
24762;BME280;12865;51.934;10.330;2023-02-12T05:12:10;101183.00;;;6.91;100.00
24762;BME280;12865;51.934;10.330;2023-02-12T05:14:57;101173.66;;;6.83;100.00
24762;BME280;12865;51.934;10.330;2023-02-12T05:17:42;101186.84;;;6.84;100.00
24762;BME280;12865;51.934;10.330;2023-02-12T05:20:30;101181.59;;;6.83;100.00
24762;BME280;12865;51.934;10.330;2023-02-12T05:23:15;101185.78;;;6.88;100.00
24762;BME280;12865;51.934;10.330;2023-02-12T05:26:04;101188.91;;;6.78;100.00
24762;BME280;12865;51.934;10.330;2023-02-12T05:28:50;101196.88;;;6.78;100.00
24762;BME280;12865;51.934;10.330;2023-02-12T05:31:36;101189.94;;;6.74;100.00
24762;BME280;12865;51.934;10.330;2023-02-12T05:34:21;101189.56;;;6.83;100.00
24762;BME280;12865;51.934;10.330;2023-02-12T05:37:07;101197.56;;;6.81;100.00
24762;BME280;12865;51.934;10.330;2023-02-12T05:39:53;101195.25;;;6.74;100.00
24762;BME280;12865;51.934;10.330;2023-02-12T05:42:38;101196.06;;;6.76;100.00
24762;BME280;12865;51.934;10.330;2023-02-12T05:45:24;101190.44;;;6.63;100.00
24762;BME280;12865;51.934;10.330;2023-02-12T05:48:12;101184.16;;;6.65;100.00
24762;BME280;12865;51.934;10.330;2023-02-12T05:51:06;101197.13;;;6.72;100.00
24762;BME280;12865;51.934;10.330;2023-02-12T05:53:56;101196.44;;;6.66;100.00
24762;BME280;12865;51.934;10.330;2023-02-12T05:56:45;101194.06;;;6.60;100.00
24762;BME280;12865;51.934;10.330;2023-02-12T05:59:31;101198.88;;;6.73;100.00
24762;BME280;12865;51.934;10.330;2023-02-12T06:02:18;101201.91;;;6.63;100.00
24762;BME280;12865;51.934;10.330;2023-02-12T06:05:04;101201.44;;;6.54;100.00
24762;BME280;12865;51.934;10.330;2023-02-12T06:07:49;101207.16;;;6.65;100.00
24762;BME280;12865;51.934;10.330;2023-02-12T06:10:36;101207.53;;;6.56;100.00
24762;BME280;12865;51.934;10.330;2023-02-12T06:13:21;101205.09;;;6.51;100.00
24762;BME280;12865;51.934;10.330;2023-02-12T06:16:15;101210.50;;;6.48;100.00
24762;BME280;12865;51.934;10.330;2023-02-12T06:19:04;101208.00;;;6.65;100.00
24762;BME280;12865;51.934;10.330;2023-02-12T06:21:50;101200.50;;;6.55;100.00
24762;BME280;12865;51.934;10.330;2023-02-12T06:24:36;101202.34;;;6.53;100.00
24762;BME280;12865;51.934;10.330;2023-02-12T06:27:21;101203.41;;;6.49;100.00
24762;BME280;12865;51.934;10.330;2023-02-12T06:30:08;101204.28;;;6.49;100.00
24762;BME280;12865;51.934;10.330;2023-02-12T06:32:53;101205.91;;;6.52;100.00
24762;BME280;12865;51.934;10.330;2023-02-12T06:35:39;101209.31;;;6.55;100.00
24762;BME280;12865;51.934;10.330;2023-02-12T06:38:25;101207.59;;;6.54;100.00
24762;BME280;12865;51.934;10.330;2023-02-12T06:41:11;101210.44;;;6.50;100.00
24762;BME280;12865;51.934;10.330;2023-02-12T06:43:57;101209.63;;;6.48;100.00
24762;BME280;12865;51.934;10.330;2023-02-12T06:46:43;101219.69;;;6.40;100.00
24762;BME280;12865;51.934;10.330;2023-02-12T06:49:28;101214.06;;;6.47;100.00
24762;BME280;12865;51.934;10.330;2023-02-12T06:52:14;101223.53;;;6.53;100.00
24762;BME280;12865;51.934;10.330;2023-02-12T06:55:00;101222.50;;;6.57;100.00
24762;BME280;12865;51.934;10.330;2023-02-12T06:57:45;101231.00;;;6.45;100.00
24762;BME280;12865;51.934;10.330;2023-02-12T07:00:31;101228.41;;;6.43;100.00
24762;BME280;12865;51.934;10.330;2023-02-12T07:03:17;101231.81;;;6.45;100.00
24762;BME280;12865;51.934;10.330;2023-02-12T07:06:03;101235.47;;;6.43;100.00
24762;BME280;12865;51.934;10.330;2023-02-12T07:08:49;101231.97;;;6.42;100.00
24762;BME280;12865;51.934;10.330;2023-02-12T07:11:35;101238.78;;;6.48;100.00
24762;BME280;12865;51.934;10.330;2023-02-12T07:14:21;101237.88;;;6.49;100.00
24762;BME280;12865;51.934;10.330;2023-02-12T07:17:07;101242.41;;;6.45;100.00
24762;BME280;12865;51.934;10.330;2023-02-12T07:19:54;101244.13;;;6.46;100.00
24762;BME280;12865;51.934;10.330;2023-02-12T07:22:39;101243.16;;;6.49;100.00
24762;BME280;12865;51.934;10.330;2023-02-12T07:25:25;101247.72;;;6.45;100.00
24762;BME280;12865;51.934;10.330;2023-02-12T07:28:10;101237.97;;;6.46;100.00
24762;BME280;12865;51.934;10.330;2023-02-12T07:30:56;101246.88;;;6.45;100.00
24762;BME280;12865;51.934;10.330;2023-02-12T07:33:43;101244.22;;;6.45;100.00
24762;BME280;12865;51.934;10.330;2023-02-12T07:36:30;101246.88;;;6.45;100.00
24762;BME280;12865;51.934;10.330;2023-02-12T07:39:17;101253.97;;;6.44;100.00
24762;BME280;12865;51.934;10.330;2023-02-12T07:42:02;101251.78;;;6.54;100.00
24762;BME280;12865;51.934;10.330;2023-02-12T07:44:48;101256.03;;;6.58;100.00
24762;BME280;12865;51.934;10.330;2023-02-12T07:47:34;101258.81;;;6.55;100.00
24762;BME280;12865;51.934;10.330;2023-02-12T07:50:22;101262.38;;;6.54;100.00
24762;BME280;12865;51.934;10.330;2023-02-12T07:53:08;101257.81;;;6.57;100.00
24762;BME280;12865;51.934;10.330;2023-02-12T07:55:54;101262.25;;;6.57;100.00
24762;BME280;12865;51.934;10.330;2023-02-12T07:58:40;101262.19;;;6.58;100.00
24762;BME280;12865;51.934;10.330;2023-02-12T08:01:38;101255.03;;;6.60;100.00
24762;BME280;12865;51.934;10.330;2023-02-12T08:04:24;101263.66;;;6.65;100.00
24762;BME280;12865;51.934;10.330;2023-02-12T08:07:10;101270.75;;;6.65;100.00
24762;BME280;12865;51.934;10.330;2023-02-12T08:09:56;101266.06;;;6.72;100.00
24762;BME280;12865;51.934;10.330;2023-02-12T08:12:41;101268.56;;;6.75;100.00
24762;BME280;12865;51.934;10.330;2023-02-12T08:15:27;101267.63;;;6.76;100.00
24762;BME280;12865;51.934;10.330;2023-02-12T08:18:12;101271.91;;;6.80;100.00
24762;BME280;12865;51.934;10.330;2023-02-12T08:21:06;101268.22;;;6.82;100.00
24762;BME280;12865;51.934;10.330;2023-02-12T08:23:56;101270.06;;;6.80;100.00
24762;BME280;12865;51.934;10.330;2023-02-12T08:26:42;101272.81;;;6.79;100.00
24762;BME280;12865;51.934;10.330;2023-02-12T08:29:28;101277.97;;;6.82;100.00
24762;BME280;12865;51.934;10.330;2023-02-12T08:32:14;101282.41;;;6.81;100.00
24762;BME280;12865;51.934;10.330;2023-02-12T08:35:01;101283.16;;;6.85;100.00
24762;BME280;12865;51.934;10.330;2023-02-12T08:37:47;101276.13;;;6.84;100.00
24762;BME280;12865;51.934;10.330;2023-02-12T08:40:32;101283.28;;;6.82;100.00
24762;BME280;12865;51.934;10.330;2023-02-12T08:43:18;101285.47;;;6.92;100.00
24762;BME280;12865;51.934;10.330;2023-02-12T08:46:20;101280.94;;;6.94;100.00
24762;BME280;12865;51.934;10.330;2023-02-12T08:49:10;101284.41;;;6.96;100.00
24762;BME280;12865;51.934;10.330;2023-02-12T08:51:57;101287.94;;;6.97;100.00
24762;BME280;12865;51.934;10.330;2023-02-12T08:54:43;101293.22;;;6.97;100.00
24762;BME280;12865;51.934;10.330;2023-02-12T08:57:29;101295.94;;;6.95;100.00
24762;BME280;12865;51.934;10.330;2023-02-12T09:00:15;101300.31;;;6.96;100.00
24762;BME280;12865;51.934;10.330;2023-02-12T09:03:00;101306.16;;;7.04;100.00
24762;BME280;12865;51.934;10.330;2023-02-12T09:05:46;101302.44;;;7.08;100.00
24762;BME280;12865;51.934;10.330;2023-02-12T09:08:32;101295.06;;;7.15;100.00
24762;BME280;12865;51.934;10.330;2023-02-12T09:11:20;101303.66;;;7.22;100.00
24762;BME280;12865;51.934;10.330;2023-02-12T09:14:12;101300.31;;;7.17;100.00
24762;BME280;12865;51.934;10.330;2023-02-12T09:16:58;101308.00;;;7.23;100.00
24762;BME280;12865;51.934;10.330;2023-02-12T09:19:44;101311.25;;;7.29;100.00
24762;BME280;12865;51.934;10.330;2023-02-12T09:22:29;101313.06;;;7.29;100.00
24762;BME280;12865;51.934;10.330;2023-02-12T09:25:15;101317.41;;;7.30;100.00
24762;BME280;12865;51.934;10.330;2023-02-12T09:28:01;101324.44;;;7.31;100.00
24762;BME280;12865;51.934;10.330;2023-02-12T09:30:46;101321.75;;;7.32;100.00
24762;BME280;12865;51.934;10.330;2023-02-12T09:33:33;101323.16;;;7.21;100.00
24762;BME280;12865;51.934;10.330;2023-02-12T09:36:19;101324.78;;;7.23;100.00
24762;BME280;12865;51.934;10.330;2023-02-12T09:39:05;101324.59;;;7.28;100.00
24762;BME280;12865;51.934;10.330;2023-02-12T09:42:12;101331.38;;;7.35;100.00
24762;BME280;12865;51.934;10.330;2023-02-12T09:50:58;101341.81;;;7.38;100.00
24762;BME280;12865;51.934;10.330;2023-02-12T09:53:47;101341.88;;;7.36;100.00
24762;BME280;12865;51.934;10.330;2023-02-12T09:56:35;101343.16;;;7.48;100.00
24762;BME280;12865;51.934;10.330;2023-02-12T09:59:30;101345.66;;;7.51;100.00
24762;BME280;12865;51.934;10.330;2023-02-12T10:02:19;101347.19;;;7.57;100.00
24762;BME280;12865;51.934;10.330;2023-02-12T10:05:15;101339.69;;;7.46;100.00
24762;BME280;12865;51.934;10.330;2023-02-12T10:14:25;101344.31;;;7.61;100.00
24762;BME280;12865;51.934;10.330;2023-02-12T10:23:37;101342.59;;;7.60;100.00
24762;BME280;12865;51.934;10.330;2023-02-12T10:26:30;101342.31;;;7.66;100.00
24762;BME280;12865;51.934;10.330;2023-02-12T10:29:21;101346.97;;;7.61;100.00
24762;BME280;12865;51.934;10.330;2023-02-12T10:32:16;101346.81;;;7.64;100.00
24762;BME280;12865;51.934;10.330;2023-02-12T10:35:15;101347.50;;;7.69;100.00
24762;BME280;12865;51.934;10.330;2023-02-12T10:38:16;101349.34;;;7.67;100.00
24762;BME280;12865;51.934;10.330;2023-02-12T10:41:04;101351.09;;;7.68;100.00
24762;BME280;12865;51.934;10.330;2023-02-12T10:43:49;101355.25;;;7.74;100.00
24762;BME280;12865;51.934;10.330;2023-02-12T10:46:35;101343.94;;;7.70;100.00
24762;BME280;12865;51.934;10.330;2023-02-12T10:49:21;101346.25;;;7.78;100.00
24762;BME280;12865;51.934;10.330;2023-02-12T10:52:32;101344.28;;;7.81;100.00
24762;BME280;12865;51.934;10.330;2023-02-12T10:55:26;101344.44;;;7.97;100.00
24762;BME280;12865;51.934;10.330;2023-02-12T10:58:19;101347.81;;;8.01;100.00
24762;BME280;12865;51.934;10.330;2023-02-12T11:01:18;101343.53;;;7.98;100.00
24762;BME280;12865;51.934;10.330;2023-02-12T11:04:28;101349.91;;;8.13;100.00
24762;BME280;12865;51.934;10.330;2023-02-12T11:07:15;101346.81;;;8.22;100.00
24762;BME280;12865;51.934;10.330;2023-02-12T11:10:03;101342.28;;;8.24;100.00
24762;BME280;12865;51.934;10.330;2023-02-12T11:13:04;101339.47;;;8.27;100.00
24762;BME280;12865;51.934;10.330;2023-02-12T11:15:51;101345.41;;;8.34;100.00
24762;BME280;12865;51.934;10.330;2023-02-12T11:18:37;101328.44;;;8.36;100.00
24762;BME280;12865;51.934;10.330;2023-02-12T11:21:23;101330.72;;;8.44;100.00
24762;BME280;12865;51.934;10.330;2023-02-12T11:27:24;101322.81;;;8.42;100.00
24762;BME280;12865;51.934;10.330;2023-02-12T11:30:18;101317.84;;;8.53;100.00
24762;BME280;12865;51.934;10.330;2023-02-12T11:36:23;101317.47;;;8.61;100.00
24762;BME280;12865;51.934;10.330;2023-02-12T11:42:20;101311.63;;;8.72;100.00
24762;BME280;12865;51.934;10.330;2023-02-12T11:45:16;101303.81;;;8.69;100.00
24762;BME280;12865;51.934;10.330;2023-02-12T11:48:12;101304.56;;;8.71;100.00
24762;BME280;12865;51.934;10.330;2023-02-12T11:51:03;101309.13;;;8.86;100.00
24762;BME280;12865;51.934;10.330;2023-02-12T11:53:52;101309.59;;;8.94;100.00
24762;BME280;12865;51.934;10.330;2023-02-12T11:56:42;101307.41;;;9.02;100.00
24762;BME280;12865;51.934;10.330;2023-02-12T11:59:35;101304.50;;;9.06;100.00
24762;BME280;12865;51.934;10.330;2023-02-12T12:02:24;101303.25;;;9.14;100.00
24762;BME280;12865;51.934;10.330;2023-02-12T12:05:18;101304.13;;;9.14;100.00
24762;BME280;12865;51.934;10.330;2023-02-12T12:08:29;101313.97;;;8.95;100.00
24762;BME280;12865;51.934;10.330;2023-02-12T12:11:27;101305.06;;;8.96;100.00
24762;BME280;12865;51.934;10.330;2023-02-12T12:14:25;101310.00;;;9.03;100.00
24762;BME280;12865;51.934;10.330;2023-02-12T12:17:13;101304.91;;;8.99;100.00
24762;BME280;12865;51.934;10.330;2023-02-12T12:20:22;101307.25;;;9.05;100.00
24762;BME280;12865;51.934;10.330;2023-02-12T12:23:17;101311.69;;;9.04;100.00
24762;BME280;12865;51.934;10.330;2023-02-12T12:26:21;101307.63;;;9.15;100.00
24762;BME280;12865;51.934;10.330;2023-02-12T12:29:43;101310.91;;;9.20;100.00
24762;BME280;12865;51.934;10.330;2023-02-12T12:32:35;101310.00;;;9.03;100.00
24762;BME280;12865;51.934;10.330;2023-02-12T12:35:31;101306.88;;;8.95;100.00
24762;BME280;12865;51.934;10.330;2023-02-12T12:38:29;101309.47;;;8.97;100.00
24762;BME280;12865;51.934;10.330;2023-02-12T12:47:53;101309.56;;;9.11;100.00
24762;BME280;12865;51.934;10.330;2023-02-12T12:56:57;101288.69;;;8.86;100.00
24762;BME280;12865;51.934;10.330;2023-02-12T13:00:07;101286.91;;;8.87;100.00
24762;BME280;12865;51.934;10.330;2023-02-12T13:03:19;101281.28;;;8.93;100.00
24762;BME280;12865;51.934;10.330;2023-02-12T13:12:37;101289.69;;;9.18;100.00
24762;BME280;12865;51.934;10.330;2023-02-12T13:18:32;101285.16;;;9.20;100.00
24762;BME280;12865;51.934;10.330;2023-02-12T13:24:44;101283.28;;;9.22;100.00
24762;BME280;12865;51.934;10.330;2023-02-12T13:27:36;101280.00;;;9.17;100.00
24762;BME280;12865;51.934;10.330;2023-02-12T13:30:36;101273.44;;;9.07;100.00
24762;BME280;12865;51.934;10.330;2023-02-12T13:33:27;101278.75;;;9.07;100.00
24762;BME280;12865;51.934;10.330;2023-02-12T13:36:16;101285.94;;;9.05;100.00
24762;BME280;12865;51.934;10.330;2023-02-12T13:42:25;101277.81;;;8.91;100.00
24762;BME280;12865;51.934;10.330;2023-02-12T13:45:18;101272.03;;;9.00;100.00
24762;BME280;12865;51.934;10.330;2023-02-12T13:48:21;101268.75;;;8.95;100.00
24762;BME280;12865;51.934;10.330;2023-02-12T13:51:38;101272.91;;;9.00;100.00
24762;BME280;12865;51.934;10.330;2023-02-12T13:55:06;101263.28;;;8.81;100.00
24762;BME280;12865;51.934;10.330;2023-02-12T14:01:47;101269.94;;;8.55;100.00
24762;BME280;12865;51.934;10.330;2023-02-12T14:04:42;101260.59;;;8.63;100.00
24762;BME280;12865;51.934;10.330;2023-02-12T14:07:42;101260.13;;;8.55;100.00
24762;BME280;12865;51.934;10.330;2023-02-12T14:10:35;101268.03;;;8.57;100.00
24762;BME280;12865;51.934;10.330;2023-02-12T14:13:23;101259.00;;;8.61;100.00
24762;BME280;12865;51.934;10.330;2023-02-12T14:16:39;101258.03;;;8.79;100.00
24762;BME280;12865;51.934;10.330;2023-02-12T14:23:27;101269.63;;;8.61;100.00
24762;BME280;12865;51.934;10.330;2023-02-12T14:26:21;101270.63;;;8.58;100.00
24762;BME280;12865;51.934;10.330;2023-02-12T14:29:18;101274.53;;;8.51;100.00
24762;BME280;12865;51.934;10.330;2023-02-12T14:35:39;101271.41;;;8.60;100.00
24762;BME280;12865;51.934;10.330;2023-02-12T14:41:32;101275.94;;;8.58;100.00
24762;BME280;12865;51.934;10.330;2023-02-12T14:50:22;101279.41;;;8.60;100.00
24762;BME280;12865;51.934;10.330;2023-02-12T14:53:25;101269.22;;;8.51;100.00
24762;BME280;12865;51.934;10.330;2023-02-12T14:58:43;101282.19;;;8.40;100.00
24762;BME280;12865;51.934;10.330;2023-02-12T15:01:32;101281.16;;;8.43;100.00
24762;BME280;12865;51.934;10.330;2023-02-12T15:04:23;101278.72;;;8.38;100.00
24762;BME280;12865;51.934;10.330;2023-02-12T15:07:15;101285.91;;;8.36;100.00
24762;BME280;12865;51.934;10.330;2023-02-12T15:10:11;101283.41;;;8.33;100.00
24762;BME280;12865;51.934;10.330;2023-02-12T15:16:16;101293.25;;;8.31;100.00
24762;BME280;12865;51.934;10.330;2023-02-12T15:19:25;101289.94;;;8.26;100.00
24762;BME280;12865;51.934;10.330;2023-02-12T15:22:38;101291.22;;;8.17;100.00
24762;BME280;12865;51.934;10.330;2023-02-12T15:25:28;101281.66;;;8.13;100.00
24762;BME280;12865;51.934;10.330;2023-02-12T15:28:24;101278.66;;;8.21;100.00
24762;BME280;12865;51.934;10.330;2023-02-12T15:31:15;101280.59;;;8.17;100.00
24762;BME280;12865;51.934;10.330;2023-02-12T15:34:02;101278.19;;;8.13;100.00
24762;BME280;12865;51.934;10.330;2023-02-12T15:36:48;101272.88;;;8.13;100.00
24762;BME280;12865;51.934;10.330;2023-02-12T15:39:40;101279.88;;;8.14;100.00
24762;BME280;12865;51.934;10.330;2023-02-12T15:51:17;101273.44;;;8.01;100.00
24762;BME280;12865;51.934;10.330;2023-02-12T15:54:05;101276.03;;;8.02;100.00
24762;BME280;12865;51.934;10.330;2023-02-12T15:56:53;101278.69;;;8.02;100.00
24762;BME280;12865;51.934;10.330;2023-02-12T15:59:39;101276.03;;;8.02;100.00
24762;BME280;12865;51.934;10.330;2023-02-12T16:02:27;101283.19;;;8.00;100.00
24762;BME280;12865;51.934;10.330;2023-02-12T16:05:14;101264.84;;;7.96;100.00
24762;BME280;12865;51.934;10.330;2023-02-12T16:08:01;101280.19;;;7.89;100.00
24762;BME280;12865;51.934;10.330;2023-02-12T16:10:49;101275.75;;;7.89;100.00
24762;BME280;12865;51.934;10.330;2023-02-12T16:13:36;101274.59;;;7.95;100.00
24762;BME280;12865;51.934;10.330;2023-02-12T16:16:28;101279.47;;;7.85;100.00
24762;BME280;12865;51.934;10.330;2023-02-12T16:22:06;101286.44;;;7.88;100.00
24762;BME280;12865;51.934;10.330;2023-02-12T16:24:54;101283.09;;;7.84;100.00
24762;BME280;12865;51.934;10.330;2023-02-12T16:27:59;101281.84;;;7.92;100.00
24762;BME280;12865;51.934;10.330;2023-02-12T16:30:45;101281.91;;;7.90;100.00
24762;BME280;12865;51.934;10.330;2023-02-12T16:36:28;101287.81;;;7.78;100.00
24762;BME280;12865;51.934;10.330;2023-02-12T16:39:30;101296.78;;;7.75;100.00
24762;BME280;12865;51.934;10.330;2023-02-12T16:42:23;101301.16;;;7.76;100.00
24762;BME280;12865;51.934;10.330;2023-02-12T16:45:38;101302.03;;;7.77;100.00
24762;BME280;12865;51.934;10.330;2023-02-12T16:48:24;101307.97;;;7.82;100.00